Hubbell Corners, New York
Current Conditions -  °F | °C
As of 1:55 PM on Thursday 23 Oct 2014 (Local Time) from KMSV Reporting Station
Overcast Overcast  
Wind Chill: 39°   Ceiling: 4500
Heat Index: 46°   Visibility: 10mi
Dew Point: 45°   Wind: 17mph
Humidity: 93%   Direction: 340°NNW
Pressure: 29.78"   Gusts: 23mph
Location:  42.3044°N, 74.5553°W
Report Text: KMSV 231755Z AUTO 34015G20KT 10SM SCT018 BKN045 OVC060 08/07 A2978 RMK AO1 10080 20070 57007
Loading
Personal Weather Stations






























Interactive Weather Map
Tropical Storm Tracking
New forecast layout! Learn more

10-Day Weather Forecast

Advertisements
Track Severe Weather on mobile